This is the latest recevied weather packets stored in our database for station/object LRCV. If no packets are shown the sender has not sent any weather packets the latest 10 day(s).
| Time | Temp. | Humidity | Pressure | Rain* | Wind** | Luminosity | Snow |
|---|---|---|---|---|---|---|---|
| 1777882721 | 15° C | 55% | 1018 hPa | - | - | - | - |
| 1777881821 | 15° C | 55% | 1018 hPa | - | - | - | - |
| 1777880922 | 13.89° C | 55% | 1018 hPa | - | - | - | - |
| 1777880021 | 13.89° C | 55% | 1018 hPa | - | - | - | - |
| 1777879122 | 12.22° C | 63% | 1018 hPa | - | - | - | - |
| 1777878223 | 12.22° C | 63% | 1018 hPa | - | - | - | - |
| 1777877321 | 11.11° C | 62% | 1018 hPa | - | - | - | - |
| 1777876422 | 11.11° C | 62% | 1018 hPa | - | - | - | - |
| 1777875523 | 10° C | 71% | 1018 hPa | - | - | - | - |
| 1777874622 | 10° C | 71% | 1018 hPa | - | - | - | - |
| 1777873722 | 7.78° C | 76% | 1018 hPa | - | - | - | - |
| 1777872823 | 7.78° C | 76% | 1018 hPa | - | - | - | - |
| 1777871922 | 7.22° C | 87% | 1018 hPa | - | - | - | - |
| 1777871031 | 7.22° C | 87% | 1018 hPa | - | - | - | - |
| 1777870122 | 5° C | 93% | 1018 hPa | - | - | - | - |
| 1777869221 | 5° C | 93% | 1018 hPa | - | - | - | - |
| 1777868322 | 5° C | 87% | 1018 hPa | - | - | - | - |
| 1777867421 | 5° C | 87% | 1018 hPa | - | - | - | - |
| 1777866522 | 3.89° C | 93% | 1018 hPa | - | - | - | - |
| 1777865621 | 3.89° C | 93% | 1018 hPa | - | - | - | - |
| 1777864722 | 3.89° C | 93% | 1018 hPa | - | - | - | - |
| 1777863903 | 3.89° C | 93% | 1018 hPa | - | - | - | - |
| 1777862922 | 3.89° C | 87% | 1018 hPa | - | - | - | - |
| 1777862021 | 3.89° C | 87% | 1018 hPa | - | - | - | - |
| 1777861121 | 5° C | 81% | 1018 hPa | - | - | - | - |
* Rain since midnight (hover to see other rain measurements)
** Current wind speed in m/s (hover to see current wind gust speed)